Time;durP1;ratioP1;P1;durP2;ratioP2;P2;SDS_P1;SDS_P2;PMS_P1;PMS_P2;Temp;Humidity;BMP_temperature;BMP_pressure;BME280_temperature;BME280_humidity;BME280_pressure;Samples;Min_cycle;Max_cycle;Signal;HPM_P1;HPM_P2
2022/01/03 00:01:21;;;;;;;4.25;1.80;;;22.50;75.80;;;;;;7837640;28;20181;-60
2022/01/03 00:05:08;;;;;;;4.90;2.10;;;22.50;75.80;;;;;;7837720;28;20183;-56
2022/01/03 00:08:55;;;;;;;3.58;1.55;;;22.40;75.70;;;;;;7837064;28;20577;-58
2022/01/03 00:12:41;;;;;;;2.30;1.50;;;22.30;75.70;;;;;;7837645;28;20170;-58
2022/01/03 00:16:27;;;;;;;3.35;1.50;;;22.30;75.70;;;;;;7837406;28;20254;-58
2022/01/03 00:20:13;;;;;;;3.28;1.70;;;22.30;75.70;;;;;;7836591;28;20178;-58
2022/01/03 00:24:07;;;;;;;2.78;1.52;;;22.20;75.90;;;;;;7837225;28;20372;-59
2022/01/03 00:28:14;;;;;;;3.08;1.65;;;22.20;75.80;;;;;;7836284;28;20575;-58
2022/01/03 00:32:01;;;;;;;2.88;1.67;;;22.10;75.80;;;;;;7839081;28;20182;-58
2022/01/03 00:35:53;;;;;;;3.45;1.67;;;22.10;75.80;;;;;;7842706;28;20209;-59
2022/01/03 00:39:39;;;;;;;3.50;1.80;;;22.00;75.80;;;;;;7842084;28;20417;-59
2022/01/03 00:43:25;;;;;;;1.98;1.30;;;22.10;75.80;;;;;;7842612;28;20181;-58
2022/01/03 00:47:11;;;;;;;3.47;1.70;;;22.00;75.80;;;;;;7842304;28;20678;-59
2022/01/03 00:50:56;;;;;;;2.40;1.73;;;22.00;75.80;;;;;;7841548;28;20579;-59
2022/01/03 00:54:42;;;;;;;2.22;1.48;;;21.90;75.80;;;;;;7842234;28;20182;-59
2022/01/03 00:58:37;;;;;;;2.47;1.48;;;21.90;75.80;;;;;;7841153;28;20229;-58
2022/01/03 01:02:27;;;;;;;3.28;1.40;;;21.80;75.80;;;;;;7841984;28;20201;-58
2022/01/03 01:06:13;;;;;;;2.88;1.63;;;21.80;75.80;;;;;;7841665;28;20185;-58
2022/01/03 01:10:04;;;;;;;1.80;1.33;;;21.70;75.90;;;;;;7841101;28;20202;-57
2022/01/03 01:13:50;;;;;;;3.28;1.50;;;21.70;75.90;;;;;;7841577;28;20201;-59
2022/01/03 01:17:36;;;;;;;4.90;1.48;;;21.70;75.90;;;;;;7840721;28;20213;-59
2022/01/03 01:21:23;;;;;;;4.65;1.63;;;21.70;76.00;;;;;;7841547;28;20182;-59
2022/01/03 01:28:58;;;;;;;2.75;1.90;;;21.60;76.00;;;;;;7840364;28;20225;-59
2022/01/03 01:32:57;;;;;;;2.97;1.55;;;21.60;76.00;;;;;;7839306;28;20185;-57
2022/01/03 01:36:46;;;;;;;4.63;1.35;;;21.50;76.00;;;;;;7841050;28;20585;-59
2022/01/03 01:40:31;;;;;;;3.05;1.58;;;21.50;75.90;;;;;;7840342;28;20178;-59
2022/01/03 01:44:17;;;;;;;4.70;1.30;;;21.50;75.90;;;;;;7840051;28;20236;-59
2022/01/03 01:48:03;;;;;;;1.60;1.30;;;21.40;75.90;;;;;;7840126;28;20197;-59
2022/01/03 01:51:57;;;;;;;2.95;1.40;;;21.40;75.90;;;;;;7840592;28;20189;-59
2022/01/03 01:55:47;;;;;;;1.85;1.30;;;21.40;75.90;;;;;;7840455;28;20181;-59
2022/01/03 02:00:02;;;;;;;4.70;1.40;;;21.30;76.00;;;;;;7839402;28;20205;-58
2022/01/03 02:04:02;;;;;;;3.60;1.20;;;21.30;76.00;;;;;;7840296;28;20186;-59
2022/01/03 02:08:14;;;;;;;3.00;1.30;;;21.30;76.00;;;;;;7839188;28;20695;-59
2022/01/03 02:12:05;;;;;;;2.20;1.42;;;21.30;76.00;;;;;;7839946;28;20201;-59
2022/01/03 02:15:58;;;;;;;3.78;1.42;;;21.20;75.90;;;;;;7839722;28;20268;-59
2022/01/03 02:20:00;;;;;;;2.80;1.10;;;21.20;76.00;;;;;;7839230;28;20259;-58
2022/01/03 02:23:46;;;;;;;2.15;1.40;;;21.20;76.00;;;;;;7839579;28;20245;-59
2022/01/03 02:27:32;;;;;;;2.13;1.35;;;21.20;75.90;;;;;;7838652;28;20202;-58
2022/01/03 02:31:18;;;;;;;1.35;1.17;;;21.20;75.90;;;;;;7839340;28;20174;-59
2022/01/03 02:35:04;;;;;;;3.50;1.08;;;21.20;76.00;;;;;;7839292;28;20189;-58
2022/01/03 02:38:49;;;;;;;1.70;1.10;;;21.10;76.00;;;;;;7838294;28;20213;-58
2022/01/03 02:42:35;;;;;;;1.67;1.17;;;21.10;76.00;;;;;;7839025;28;20177;-59
2022/01/03 02:46:21;;;;;;;2.35;1.13;;;21.00;76.00;;;;;;7838854;28;20193;-59
2022/01/03 02:50:09;;;;;;;2.47;1.25;;;21.00;76.00;;;;;;7838335;28;20231;-58
2022/01/03 02:53:54;;;;;;;1.90;1.15;;;21.00;76.00;;;;;;7838436;28;20659;-58
2022/01/03 02:57:43;;;;;;;1.40;1.30;;;21.00;76.00;;;;;;7837691;28;20547;-57
2022/01/03 03:01:28;;;;;;;2.58;0.90;;;20.90;76.00;;;;;;7838652;28;20178;-58
2022/01/03 03:05:15;;;;;;;6.47;1.13;;;20.90;76.10;;;;;;7838445;28;20182;-58
2022/01/03 03:09:06;;;;;;;2.85;1.35;;;20.90;76.10;;;;;;7837658;28;20290;-59
2022/01/03 03:12:52;;;;;;;2.45;1.00;;;20.80;76.00;;;;;;7838647;28;20178;-59
2022/01/03 03:16:38;;;;;;;1.58;1.00;;;20.80;76.10;;;;;;7838265;28;20206;-58
2022/01/03 03:20:29;;;;;;;2.17;1.08;;;20.80;76.10;;;;;;7837612;28;20201;-58
2022/01/03 03:24:14;;;;;;;2.35;0.90;;;20.80;76.10;;;;;;7838570;28;20625;-58
2022/01/03 03:28:12;;;;;;;3.00;1.00;;;20.80;76.10;;;;;;7837762;28;20550;-58
2022/01/03 03:31:58;;;;;;;2.20;1.00;;;20.70;76.20;;;;;;7838124;28;20192;-58
2022/01/03 03:35:44;;;;;;;1.55;1.00;;;20.70;76.20;;;;;;7838086;28;20216;-58
2022/01/03 03:39:33;;;;;;;1.10;0.90;;;20.70;76.20;;;;;;7835750;28;20218;-59
2022/01/03 03:43:19;;;;;;;2.90;0.82;;;20.70;76.20;;;;;;7837840;28;20178;-58
2022/01/03 03:47:06;;;;;;;5.82;1.20;;;20.70;76.20;;;;;;7837829;28;20202;-58
2022/01/03 03:50:51;;;;;;;3.47;1.00;;;20.70;76.10;;;;;;7836992;28;20185;-58
2022/01/03 03:54:37;;;;;;;1.73;0.80;;;20.70;76.10;;;;;;7837665;28;20631;-58
2022/01/03 03:58:22;;;;;;;2.88;0.82;;;20.60;76.10;;;;;;7836727;28;20213;-58
2022/01/03 04:02:08;;;;;;;1.80;0.82;;;20.60;76.10;;;;;;7837512;28;20170;-58
2022/01/03 04:05:53;;;;;;;2.95;0.93;;;20.60;76.20;;;;;;7837635;28;20178;-59
2022/01/03 04:09:39;;;;;;;2.03;0.88;;;20.50;76.10;;;;;;7842654;28;20683;-58
2022/01/03 04:13:24;;;;;;;1.77;0.88;;;20.50;76.10;;;;;;7843478;28;20185;-58
2022/01/03 04:17:11;;;;;;;1.40;0.70;;;20.60;76.20;;;;;;7843212;28;20213;-58
2022/01/03 04:20:57;;;;;;;1.23;0.70;;;20.60;76.10;;;;;;7842583;28;20635;-58
2022/01/03 04:24:43;;;;;;;1.25;0.88;;;20.50;76.00;;;;;;7842993;28;20573;-58
2022/01/03 04:28:28;;;;;;;1.33;0.70;;;20.50;76.10;;;;;;7842167;28;20218;-58
2022/01/03 04:32:13;;;;;;;0.60;0.60;;;20.50;76.10;;;;;;7842853;28;20640;-58
2022/01/03 04:35:59;;;;;;;1.02;0.60;;;20.50;76.20;;;;;;7842648;28;20197;-58
2022/01/03 04:39:45;;;;;;;1.83;0.80;;;20.50;76.10;;;;;;7841792;28;20255;-58
2022/01/03 04:43:33;;;;;;;2.20;0.93;;;20.40;76.10;;;;;;7842661;28;20204;-58
2022/01/03 04:47:19;;;;;;;1.52;0.60;;;20.40;76.10;;;;;;7842381;28;20562;-59
2022/01/03 04:51:05;;;;;;;0.95;0.70;;;20.40;76.60;;;;;;7841721;28;20208;-58
2022/01/03 04:54:51;;;;;;;1.58;0.77;;;20.40;76.10;;;;;;7842363;28;20189;-59
2022/01/03 04:58:37;;;;;;;1.10;0.50;;;20.40;76.10;;;;;;7841214;28;20202;-58
2022/01/03 05:02:22;;;;;;;0.82;0.70;;;20.40;76.10;;;;;;7842010;28;20771;-58
2022/01/03 05:06:08;;;;;;;1.33;0.70;;;20.30;76.10;;;;;;7841833;28;20254;-59
2022/01/03 05:09:53;;;;;;;0.68;0.57;;;20.40;76.10;;;;;;7841283;28;20189;-59
2022/01/03 05:13:39;;;;;;;1.05;0.65;;;20.40;76.00;;;;;;7842452;28;20186;-58
2022/01/03 05:17:25;;;;;;;0.52;0.52;;;20.30;76.00;;;;;;7841759;28;20255;-58
2022/01/03 05:21:10;;;;;;;1.30;0.60;;;20.30;76.00;;;;;;7841562;28;20178;-59
2022/01/03 05:24:56;;;;;;;0.85;0.52;;;20.30;76.00;;;;;;7841952;28;20631;-58
2022/01/03 05:28:41;;;;;;;1.42;0.57;;;20.30;76.00;;;;;;7840861;28;20201;-57
2022/01/03 05:32:27;;;;;;;1.30;0.73;;;20.30;76.00;;;;;;7841285;28;20878;-58
2022/01/03 05:36:12;;;;;;;0.50;0.50;;;20.30;76.00;;;;;;7840959;28;20182;-59
2022/01/03 05:39:58;;;;;;;6.22;0.82;;;20.30;76.00;;;;;;7840232;28;20237;-58
2022/01/03 05:43:44;;;;;;;6.18;0.60;;;20.30;75.90;;;;;;7840897;28;20232;-60
2022/01/03 05:47:30;;;;;;;10.20;1.20;;;20.20;76.00;;;;;;7840542;28;20225;-57
2022/01/03 05:51:16;;;;;;;6.07;0.85;;;20.20;76.20;;;;;;7856732;28;20271;-59
2022/01/03 05:55:02;;;;;;;7.88;0.80;;;20.20;76.20;;;;;;7871242;28;20173;-58
2022/01/03 05:58:48;;;;;;;4.78;0.90;;;20.20;76.20;;;;;;7869617;28;20217;-57
2022/01/03 06:02:38;;;;;;;11.98;0.73;;;20.20;76.30;;;;;;7846390;28;20177;-58
2022/01/03 06:06:53;;;;;;;3.75;1.20;;;20.10;76.30;;;;;;7870594;28;20212;-59
2022/01/03 06:10:30;;;;;;;4.32;0.80;;;20.20;76.40;;;;;;7870334;28;20531;-58
2022/01/03 06:14:17;;;;;;;17.48;1.80;;;20.20;76.30;;;;;;7870770;28;20181;-58
2022/01/03 06:18:04;;;;;;;31.20;1.75;;;20.20;76.30;;;;;;7870311;28;20248;-58
2022/01/03 06:21:49;;;;;;;32.03;1.70;;;20.20;76.40;;;;;;7870723;28;20166;-59
2022/01/03 06:25:35;;;;;;;27.58;3.80;;;20.20;76.30;;;;;;7870689;28;20177;-58
2022/01/03 06:29:21;;;;;;;19.40;1.48;;;20.20;76.40;;;;;;7869786;28;20197;-58
2022/01/03 06:33:08;;;;;;;14.73;1.38;;;20.20;76.40;;;;;;7871101;28;20204;-59
2022/01/03 06:36:54;;;;;;;13.98;1.52;;;20.10;76.30;;;;;;7870078;28;20232;-58
2022/01/03 06:40:39;;;;;;;7.38;1.30;;;20.10;76.10;;;;;;7869796;28;20704;-59
2022/01/03 06:44:25;;;;;;;12.25;1.60;;;19.90;71.40;;;;;;7870190;28;20719;-58
2022/01/03 06:48:10;;;;;;;6.57;1.00;;;19.60;73.30;;;;;;7869656;28;20225;-58
2022/01/03 06:51:56;;;;;;;8.88;1.10;;;19.50;75.10;;;;;;7869840;28;20264;-58
2022/01/03 06:55:42;;;;;;;6.22;1.20;;;19.50;75.70;;;;;;7869797;28;20207;-58
2022/01/03 06:59:27;;;;;;;3.00;0.77;;;19.60;75.50;;;;;;7869444;28;20266;-59
2022/01/03 07:03:13;;;;;;;9.32;1.20;;;19.60;75.40;;;;;;7869535;28;20173;-59
2022/01/03 07:06:59;;;;;;;6.32;1.08;;;19.70;75.30;;;;;;7869492;28;20221;-59
2022/01/03 07:10:44;;;;;;;0.90;0.60;;;19.70;75.30;;;;;;7869336;28;20218;-58
2022/01/03 07:22:20;;;;;;;5.47;0.95;;;19.90;75.40;;;;;;7869733;28;20176;-58
2022/01/03 07:26:05;;;;;;;20.40;1.30;;;19.80;75.40;;;;;;7869244;28;20201;-59
2022/01/03 07:29:51;;;;;;;6.40;1.27;;;19.90;75.50;;;;;;7868827;28;20260;-59
2022/01/03 07:33:37;;;;;;;5.32;1.13;;;19.80;75.50;;;;;;7869320;28;20184;-59
2022/01/03 07:37:22;;;;;;;4.40;1.02;;;19.90;75.60;;;;;;7850545;28;20220;-59
2022/01/03 07:41:09;;;;;;;6.53;1.02;;;19.90;75.60;;;;;;7838137;28;20188;-59
2022/01/03 07:44:54;;;;;;;5.93;1.02;;;19.90;75.70;;;;;;7844394;28;20211;-58
2022/01/03 07:48:40;;;;;;;6.13;1.17;;;19.80;75.50;;;;;;7843914;28;20237;-58
2022/01/03 07:52:25;;;;;;;8.75;1.88;;;19.90;75.60;;;;;;7843549;28;20683;-58
2022/01/03 07:56:11;;;;;;;2.92;0.95;;;19.80;75.50;;;;;;7843740;28;20177;-58
2022/01/03 07:59:57;;;;;;;10.98;1.15;;;19.90;75.70;;;;;;7843698;28;20217;-58
2022/01/03 08:03:42;;;;;;;6.22;0.88;;;19.80;75.70;;;;;;7844029;28;20702;-59
2022/01/03 08:07:29;;;;;;;5.32;1.20;;;19.90;75.70;;;;;;7843227;28;20212;-58
2022/01/03 08:11:14;;;;;;;4.40;1.30;;;19.80;75.60;;;;;;7843827;28;20224;-58
2022/01/03 08:15:00;;;;;;;3.35;0.98;;;19.80;75.70;;;;;;7843451;28;20277;-59
2022/01/03 08:18:45;;;;;;;6.95;1.10;;;19.80;75.80;;;;;;7842521;28;20220;-58
2022/01/03 08:22:31;;;;;;;6.68;0.93;;;19.90;75.80;;;;;;7843308;28;20170;-59
2022/01/03 08:26:16;;;;;;;6.22;0.88;;;19.80;75.80;;;;;;7843185;28;20200;-59
2022/01/03 08:30:03;;;;;;;5.18;1.08;;;19.80;75.80;;;;;;7842958;28;20544;-58
2022/01/03 08:33:49;;;;;;;6.45;1.23;;;19.80;75.80;;;;;;7842747;28;20178;-59
2022/01/03 08:37:35;;;;;;;1.63;0.80;;;19.80;75.80;;;;;;7842564;28;20287;-58
2022/01/03 08:41:20;;;;;;;6.57;1.10;;;19.90;75.90;;;;;;7842753;28;20272;-59
2022/01/03 08:45:07;;;;;;;10.20;1.15;;;19.80;75.80;;;;;;7842433;28;20632;-59
2022/01/03 08:48:54;;;;;;;7.22;0.85;;;19.80;75.90;;;;;;7842072;28;20197;-58
2022/01/03 08:52:39;;;;;;;4.53;0.95;;;19.80;76.00;;;;;;7841960;28;20650;-59
2022/01/03 08:56:25;;;;;;;3.20;1.10;;;19.80;75.90;;;;;;7842112;28;20550;-59
2022/01/03 09:00:11;;;;;;;4.70;1.00;;;19.80;76.00;;;;;;7841861;28;20213;-58
2022/01/03 09:03:57;;;;;;;4.57;0.90;;;19.80;75.90;;;;;;7842096;28;20174;-58
2022/01/03 09:07:42;;;;;;;2.75;0.70;;;19.80;75.90;;;;;;7841593;28;20293;-58
2022/01/03 09:11:28;;;;;;;4.30;0.77;;;19.80;75.90;;;;;;7841891;28;20212;-58
2022/01/03 09:15:14;;;;;;;5.15;0.90;;;19.80;76.00;;;;;;7841849;28;20669;-59
2022/01/03 09:19:00;;;;;;;7.60;0.95;;;19.80;76.00;;;;;;7841196;28;20213;-58
2022/01/03 09:22:48;;;;;;;8.55;0.82;;;19.70;75.90;;;;;;7841399;28;20185;-58
2022/01/03 09:30:38;;;;;;;9.30;1.92;;;19.70;76.00;;;;;;7840227;28;20205;-59
2022/01/03 09:34:24;;;;;;;5.60;0.85;;;19.70;75.90;;;;;;7840236;28;20185;-59
2022/01/03 09:38:10;;;;;;;7.47;0.90;;;19.70;76.00;;;;;;7840055;28;20206;-59
2022/01/03 09:42:04;;;;;;;7.13;1.17;;;19.70;76.00;;;;;;7840252;28;20197;-58
2022/01/03 09:45:49;;;;;;;12.68;1.30;;;19.70;75.90;;;;;;7840380;28;20170;-59
2022/01/03 09:49:37;;;;;;;3.75;0.93;;;19.70;75.90;;;;;;7839486;28;20200;-60
2022/01/03 09:53:23;;;;;;;6.07;1.10;;;19.70;76.00;;;;;;7840109;28;20184;-59
2022/01/03 09:57:10;;;;;;;5.82;1.55;;;19.70;75.90;;;;;;7839589;28;20194;-59
2022/01/03 10:00:55;;;;;;;5.57;1.10;;;19.70;76.00;;;;;;7839022;28;20181;-59
2022/01/03 10:04:42;;;;;;;4.68;0.90;;;19.70;75.90;;;;;;7836666;28;20205;-59
2022/01/03 10:08:28;;;;;;;9.05;1.20;;;19.70;76.00;;;;;;7837049;28;20221;-59
2022/01/03 10:12:15;;;;;;;4.85;0.80;;;19.70;76.10;;;;;;7837082;28;20220;-59
2022/01/03 10:16:01;;;;;;;6.78;1.00;;;19.70;76.00;;;;;;7837511;28;20182;-59
2022/01/03 10:20:00;;;;;;;8.50;0.70;;;19.70;76.10;;;;;;7839638;28;20297;-59
2022/01/03 10:23:55;;;;;;;3.50;0.77;;;19.70;76.10;;;;;;7839138;28;20178;-59
2022/01/03 10:27:45;;;;;;;3.70;0.80;;;19.70;75.80;;;;;;7839451;28;20292;-60
2022/01/03 10:31:30;;;;;;;1.63;0.80;;;19.70;76.10;;;;;;7839597;28;20190;-60
2022/01/03 10:35:17;;;;;;;2.22;0.80;;;19.70;76.10;;;;;;7839863;28;20261;-59
2022/01/03 10:39:13;;;;;;;4.90;0.63;;;19.70;76.10;;;;;;7838621;28;20732;-58
2022/01/03 10:43:17;;;;;;;3.47;0.82;;;19.70;76.20;;;;;;7839302;28;20169;-58
2022/01/03 10:47:05;;;;;;;1.08;0.65;;;19.60;76.20;;;;;;7839267;28;20215;-60
2022/01/03 10:50:52;;;;;;;4.15;0.70;;;19.70;76.20;;;;;;7838652;28;20166;-58
2022/01/03 10:54:38;;;;;;;3.90;0.60;;;19.70;76.10;;;;;;7838928;28;20162;-58
2022/01/03 10:58:33;;;;;;;1.35;0.65;;;19.70;76.20;;;;;;7838469;28;20208;-59
2022/01/03 11:02:18;;;;;;;3.25;0.80;;;19.70;76.20;;;;;;7838664;28;20320;-59
2022/01/03 11:06:22;;;;;;;2.65;0.63;;;19.70;76.10;;;;;;7838528;28;20174;-59
2022/01/03 11:14:39;;;;;;;1.90;0.80;;;19.70;76.10;;;;;;7838718;28;20663;-59
2022/01/03 11:18:28;;;;;;;1.42;0.60;;;19.70;76.10;;;;;;7837999;28;20213;-59
2022/01/03 11:22:44;;;;;;;3.03;0.70;;;19.70;76.10;;;;;;7838350;28;20667;-58
2022/01/03 11:26:33;;;;;;;3.33;0.60;;;19.60;76.10;;;;;;7837981;28;20197;-60
2022/01/03 11:30:20;;;;;;;3.90;0.80;;;19.60;76.20;;;;;;7837911;28;20177;-59
2022/01/03 11:34:08;;;;;;;3.08;0.70;;;19.70;76.10;;;;;;7838289;28;20213;-59
2022/01/03 11:37:55;;;;;;;1.60;0.60;;;19.70;76.20;;;;;;7837813;28;20249;-58
2022/01/03 11:41:43;;;;;;;1.50;0.55;;;19.60;76.00;;;;;;7837936;28;20643;-58
2022/01/03 11:45:28;;;;;;;3.85;0.73;;;19.70;76.00;;;;;;7838435;28;20170;-58
2022/01/03 11:49:16;;;;;;;4.95;0.73;;;19.60;76.00;;;;;;7838024;28;20208;-58
2022/01/03 11:53:01;;;;;;;2.42;0.60;;;19.60;76.00;;;;;;7837794;28;20178;-58
2022/01/03 11:57:04;;;;;;;3.63;0.98;;;19.60;75.90;;;;;;7837902;28;20200;-59
2022/01/03 12:05:07;;;;;;;1.90;0.55;;;19.60;75.90;;;;;;7835898;28;20261;-59
2022/01/03 12:08:56;;;;;;;2.20;0.60;;;19.50;75.70;;;;;;7836187;28;20228;-59
2022/01/03 12:12:41;;;;;;;8.55;0.70;;;19.60;75.90;;;;;;7836786;28;20232;-59
2022/01/03 12:16:37;;;;;;;3.83;0.52;;;19.60;75.90;;;;;;7835898;28;20206;-59
2022/01/03 12:20:38;;;;;;;2.15;0.70;;;19.60;75.90;;;;;;7836068;28;20674;-58
2022/01/03 12:24:26;;;;;;;6.80;0.80;;;19.60;75.90;;;;;;7838468;28;20542;-59
2022/01/03 12:28:11;;;;;;;1.25;0.60;;;19.60;75.90;;;;;;7853342;28;20866;-59
2022/01/03 12:32:08;;;;;;;3.60;0.70;;;19.60;75.90;;;;;;7873226;28;20591;-60
2022/01/03 12:36:17;;;;;;;2.92;0.60;;;19.60;75.90;;;;;;7873005;28;20235;-59
2022/01/03 12:40:05;;;;;;;3.00;0.40;;;19.60;75.90;;;;;;7872620;28;20205;-59
2022/01/03 12:43:53;;;;;;;3.40;0.50;;;19.60;75.90;;;;;;7872728;28;20211;-58
2022/01/03 12:47:39;;;;;;;0.47;0.40;;;19.60;75.90;;;;;;7872095;28;20322;-59
2022/01/03 12:51:35;;;;;;;3.95;0.65;;;19.60;75.90;;;;;;7872709;28;20173;-59
2022/01/03 12:55:41;;;;;;;2.05;0.60;;;19.60;75.90;;;;;;7873119;28;20177;-59
2022/01/03 12:59:37;;;;;;;2.58;0.80;;;19.60;76.00;;;;;;7873208;28;20701;-58
2022/01/03 13:03:26;;;;;;;4.82;0.88;;;19.60;76.00;;;;;;7873477;28;20173;-60
2022/01/03 13:07:11;;;;;;;2.08;0.70;;;19.60;76.10;;;;;;7872829;28;20213;-59
2022/01/03 13:11:01;;;;;;;10.10;0.60;;;19.60;76.00;;;;;;7873010;28;20195;-59
2022/01/03 13:14:46;;;;;;;3.80;0.65;;;19.60;76.20;;;;;;7873118;28;20181;-59
2022/01/03 13:18:32;;;;;;;9.15;0.60;;;19.60;76.20;;;;;;7872406;28;20220;-59
2022/01/03 13:22:18;;;;;;;1.38;0.40;;;19.50;76.20;;;;;;7872714;28;20208;-60
2022/01/03 13:26:03;;;;;;;5.05;0.70;;;19.50;76.20;;;;;;7872624;28;20576;-59
2022/01/03 13:30:03;;;;;;;3.58;0.60;;;19.50;76.20;;;;;;7871995;28;20556;-60
2022/01/03 13:34:00;;;;;;;7.68;0.60;;;19.50;76.20;;;;;;7872110;28;20524;-60
2022/01/03 13:37:45;;;;;;;0.70;0.40;;;19.50;76.20;;;;;;7871887;28;20244;-59
2022/01/03 13:41:35;;;;;;;2.30;0.60;;;19.50;76.20;;;;;;7872125;28;20173;-59
2022/01/03 13:49:23;;;;;;;12.07;0.77;;;19.50;76.20;;;;;;7871660;28;20571;-59
2022/01/03 13:53:11;;;;;;;2.50;0.50;;;19.50;76.20;;;;;;7871871;28;20173;-59
2022/01/03 13:56:59;;;;;;;4.00;0.70;;;19.50;76.20;;;;;;7871498;28;20614;-59
2022/01/03 14:00:51;;;;;;;7.43;0.60;;;19.50;76.30;;;;;;7871256;28;20343;-60
2022/01/03 14:04:37;;;;;;;4.13;0.60;;;19.50;76.30;;;;;;7871190;28;20184;-60
2022/01/03 14:08:23;;;;;;;3.85;0.73;;;19.40;76.20;;;;;;7870738;28;20213;-59
2022/01/03 14:12:14;;;;;;;6.50;0.80;;;19.40;76.20;;;;;;7871226;28;20650;-58
2022/01/03 14:16:08;;;;;;;8.43;0.90;;;19.50;76.20;;;;;;7871037;28;20173;-60
2022/01/03 14:20:07;;;;;;;12.85;1.23;;;19.50;76.00;;;;;;7870753;28;20258;-57
2022/01/03 14:23:59;;;;;;;32.72;3.00;;;19.50;76.00;;;;;;7870677;28;20170;-58
2022/01/03 14:27:47;;;;;;;83.40;4.65;;;19.50;76.10;;;;;;7869089;28;20209;-59
2022/01/03 14:31:43;;;;;;;36.13;2.20;;;19.40;76.00;;;;;;7869978;28;20269;-59
2022/01/03 14:35:31;;;;;;;37.70;3.40;;;19.40;76.10;;;;;;7870611;28;20612;-59
2022/01/03 14:39:17;;;;;;;56.88;3.40;;;19.50;76.10;;;;;;7870438;28;20290;-59
2022/01/03 14:43:04;;;;;;;59.85;3.83;;;19.40;76.90;;;;;;7870954;28;20178;-58
2022/01/03 14:47:11;;;;;;;52.63;3.17;;;19.40;76.00;;;;;;7852200;28;20276;-59
2022/01/03 14:51:07;;;;;;;44.72;3.03;;;19.40;76.00;;;;;;7869718;28;20169;-60
2022/01/03 14:54:52;;;;;;;39.00;2.53;;;19.30;75.80;;;;;;7870088;28;20178;-59
2022/01/03 14:58:38;;;;;;;33.45;3.90;;;19.30;76.10;;;;;;7869447;28;20213;-59
2022/01/03 15:02:25;;;;;;;40.45;2.90;;;19.30;76.10;;;;;;7869847;28;20170;-59
2022/01/03 15:06:12;;;;;;;24.48;2.25;;;19.30;76.10;;;;;;7869677;28;20319;-59
2022/01/03 15:09:59;;;;;;;31.15;2.13;;;19.30;76.20;;;;;;7869347;28;20173;-59
2022/01/03 15:13:44;;;;;;;23.70;2.55;;;19.30;76.20;;;;;;7869398;28;20180;-59
2022/01/03 15:17:29;;;;;;;20.52;2.08;;;19.30;76.30;;;;;;7869212;28;20686;-59
2022/01/03 15:21:15;;;;;;;22.02;2.10;;;19.30;76.30;;;;;;7869515;28;20173;-59
2022/01/03 15:25:01;;;;;;;12.07;1.50;;;19.30;76.30;;;;;;7869211;28;20184;-59
2022/01/03 15:28:46;;;;;;;19.70;2.33;;;19.30;76.30;;;;;;7869059;28;20233;-58
2022/01/03 15:32:32;;;;;;;21.35;2.30;;;19.30;76.40;;;;;;7869653;28;20570;-59
2022/01/03 15:36:17;;;;;;;16.55;2.28;;;19.30;76.40;;;;;;7869106;28;20201;-59
2022/01/03 15:40:03;;;;;;;10.05;2.33;;;19.30;76.50;;;;;;7868881;28;20201;-58
2022/01/03 15:43:49;;;;;;;13.10;1.80;;;19.30;76.40;;;;;;7869259;28;20267;-59
2022/01/03 15:47:35;;;;;;;9.95;1.60;;;19.40;76.50;;;;;;7868843;28;20531;-58
2022/01/03 15:51:21;;;;;;;6.70;1.60;;;19.40;76.40;;;;;;7869097;28;20260;-59
2022/01/03 15:55:07;;;;;;;7.97;1.83;;;19.40;76.30;;;;;;7868959;28;20185;-60
2022/01/03 15:58:52;;;;;;;11.00;1.50;;;19.40;76.30;;;;;;7868587;28;20209;-59
2022/01/03 16:02:38;;;;;;;11.30;1.60;;;19.50;76.30;;;;;;7870138;28;20264;-59
2022/01/03 16:06:24;;;;;;;5.75;2.05;;;19.50;76.20;;;;;;7874810;28;20243;-59
2022/01/03 16:10:09;;;;;;;9.30;1.23;;;19.50;76.20;;;;;;7874829;28;20196;-59
2022/01/03 16:13:55;;;;;;;4.38;1.30;;;19.60;76.20;;;;;;7874328;28;20180;-59
2022/01/03 16:17:41;;;;;;;8.82;1.45;;;19.60;76.00;;;;;;7837922;22;20313;-52
2022/01/03 16:21:26;;;;;;;9.60;1.20;;;19.60;76.00;;;;;;7812628;28;20179;-52
2022/01/03 16:25:12;;;;;;;9.23;2.05;;;19.70;75.80;;;;;;7812310;28;20202;-61
2022/01/03 16:29:12;;;;;;;10.32;2.00;;;19.70;74.10;;;;;;7808091;28;20274;-54
2022/01/03 16:32:58;;;;;;;13.32;2.38;;;19.70;73.20;;;;;;7811515;28;20198;-55
2022/01/03 16:36:44;;;;;;;10.40;2.03;;;19.60;74.00;;;;;;7810731;28;20281;-54
2022/01/03 16:40:30;;;;;;;9.18;1.63;;;19.60;74.50;;;;;;7810009;28;20238;-57
2022/01/03 16:44:15;;;;;;;16.92;2.13;;;19.70;74.80;;;;;;7810161;28;20198;-55
2022/01/03 16:48:01;;;;;;;12.60;2.22;;;19.80;75.00;;;;;;7810898;28;20199;-53
2022/01/03 16:51:46;;;;;;;9.93;2.25;;;19.80;75.10;;;;;;7811585;28;20182;-54
2022/01/03 16:55:32;;;;;;;13.75;2.58;;;19.80;74.90;;;;;;7811311;28;20198;-52
2022/01/03 16:59:18;;;;;;;13.40;3.00;;;19.90;75.00;;;;;;7792770;28;20214;-56
2022/01/03 17:03:03;;;;;;;15.32;3.10;;;19.90;74.90;;;;;;7811175;28;20183;-55
2022/01/03 17:06:49;;;;;;;11.30;3.15;;;20.00;75.00;;;;;;7811166;28;20248;-53
2022/01/03 17:10:35;;;;;;;12.70;3.33;;;20.00;74.80;;;;;;7810337;28;20253;-57
2022/01/03 17:14:21;;;;;;;14.93;2.70;;;20.10;75.00;;;;;;7806464;28;20198;-57
2022/01/03 17:18:07;;;;;;;14.80;2.28;;;20.30;75.00;;;;;;7809844;28;20763;-56
2022/01/03 17:21:52;;;;;;;15.57;2.58;;;20.50;74.60;;;;;;7810453;28;20659;-57
2022/01/03 17:25:40;;;;;;;21.95;2.40;;;20.80;74.10;;;;;;7810259;28;20671;-52
2022/01/03 17:29:26;;;;;;;13.13;2.53;;;21.00;73.90;;;;;;7809810;28;20191;-57
2022/01/03 17:33:12;;;;;;;18.25;2.47;;;21.40;73.40;;;;;;7810207;28;20272;-56
2022/01/03 17:36:57;;;;;;;13.85;2.17;;;21.70;72.80;;;;;;7810193;28;20241;-57
2022/01/03 17:40:43;;;;;;;16.98;2.40;;;21.90;72.30;;;;;;7809625;28;20289;-56
2022/01/03 17:44:28;;;;;;;10.77;2.08;;;22.20;72.00;;;;;;7809859;28;20300;-56
2022/01/03 17:48:14;;;;;;;17.90;2.55;;;22.40;71.70;;;;;;7809229;28;20285;-58
2022/01/03 17:51:59;;;;;;;13.80;2.80;;;22.60;71.50;;;;;;7809913;28;20268;-51
2022/01/03 17:55:46;;;;;;;19.50;2.60;;;22.70;71.00;;;;;;7809549;28;20202;-53
2022/01/03 17:59:32;;;;;;;63.75;3.97;;;22.80;71.10;;;;;;7808915;28;20671;-57
2022/01/03 18:03:18;;;;;;;17.65;2.50;;;22.70;66.40;;;;;;7808292;28;20421;-57
2022/01/03 18:07:05;;;;;;;18.55;2.70;;;22.50;71.80;;;;;;7809044;28;20244;-53
2022/01/03 18:10:51;;;;;;;17.05;2.20;;;22.60;71.70;;;;;;7808803;28;20186;-57
2022/01/03 18:14:36;;;;;;;16.85;4.28;;;22.80;71.40;;;;;;7808853;28;20719;-51
2022/01/03 18:18:22;;;;;;;15.60;2.90;;;22.90;69.10;;;;;;7808179;28;20217;-55
2022/01/03 18:22:07;;;;;;;10.73;3.03;;;22.90;71.00;;;;;;7791128;28;20206;-55
2022/01/03 18:25:53;;;;;;;6.63;2.40;;;23.00;71.10;;;;;;7807870;28;20201;-53
2022/01/03 18:29:38;;;;;;;13.13;3.10;;;23.00;71.10;;;;;;7807972;28;20175;-55
2022/01/03 18:33:24;;;;;;;11.15;2.25;;;23.10;71.20;;;;;;7805977;28;20239;-53
2022/01/03 18:37:10;;;;;;;15.25;2.60;;;23.10;71.20;;;;;;7791605;28;20214;-51
2022/01/03 18:40:56;;;;;;;19.85;2.75;;;23.00;71.20;;;;;;7783932;28;20203;-55
2022/01/03 18:44:41;;;;;;;14.57;2.47;;;23.00;71.40;;;;;;7776423;28;20182;-51
2022/01/03 18:48:27;;;;;;;10.07;2.55;;;23.00;71.40;;;;;;7775966;28;20545;-54
2022/01/03 18:52:12;;;;;;;9.65;2.50;;;23.00;71.30;;;;;;7777171;28;20195;-50
2022/01/03 18:55:58;;;;;;;7.65;2.30;;;23.00;72.10;;;;;;7777193;28;20253;-50
2022/01/03 18:59:44;;;;;;;9.05;2.13;;;23.00;71.20;;;;;;7776393;28;20237;-54
2022/01/03 19:03:30;;;;;;;5.88;2.00;;;23.00;71.10;;;;;;7794420;28;20260;-54
2022/01/03 19:07:16;;;;;;;16.23;2.67;;;23.00;71.20;;;;;;7806843;28;20225;-53
2022/01/03 19:11:01;;;;;;;9.70;2.60;;;23.00;71.20;;;;;;7806808;28;20641;-54
2022/01/03 19:14:47;;;;;;;8.55;2.00;;;23.10;71.20;;;;;;7807173;28;20174;-55
2022/01/03 19:18:32;;;;;;;4.55;2.30;;;23.10;71.00;;;;;;7806694;28;20217;-52
2022/01/03 19:22:18;;;;;;;9.65;2.55;;;23.20;71.10;;;;;;7807159;28;20231;-54
2022/01/03 19:26:03;;;;;;;6.75;1.70;;;23.30;71.00;;;;;;7807051;28;20221;-56
2022/01/03 19:29:51;;;;;;;5.60;1.65;;;23.40;71.00;;;;;;7806901;28;20175;-56
2022/01/03 19:41:41;;;;;;;16.88;2.70;;;23.50;70.90;;;;;;7807005;28;20174;-55
2022/01/03 19:45:27;;;;;;;10.27;2.35;;;23.50;70.90;;;;;;7806820;28;20225;-56
2022/01/03 19:49:13;;;;;;;8.65;2.10;;;23.50;70.90;;;;;;7801235;28;20545;-56
2022/01/03 19:52:58;;;;;;;18.35;2.22;;;23.50;70.90;;;;;;7806592;28;20553;-56
2022/01/03 19:56:44;;;;;;;17.05;2.22;;;23.60;71.00;;;;;;7806391;28;20242;-54
2022/01/03 20:00:29;;;;;;;36.28;3.10;;;23.50;71.30;;;;;;7805923;28;20654;-51
2022/01/03 20:04:15;;;;;;;60.90;3.40;;;23.50;71.70;;;;;;7802718;28;20639;-51
2022/01/03 20:08:02;;;;;;;46.08;2.70;;;23.50;72.00;;;;;;7804738;28;20811;-54
2022/01/03 20:11:48;;;;;;;37.13;2.97;;;23.50;72.10;;;;;;7806003;28;20179;-53
2022/01/03 20:15:35;;;;;;;39.10;2.65;;;23.50;72.20;;;;;;7804925;28;20226;-54